sensor_id;sensor_type;location;lat;lon;timestamp;temperature;humidity
37806;DHT22;25082;50.870;0.022;2022-11-21T00:00:36;20.20;62.50
37806;DHT22;25082;50.870;0.022;2022-11-21T00:03:02;20.20;62.40
37806;DHT22;25082;50.870;0.022;2022-11-21T00:05:29;20.10;62.20
37806;DHT22;25082;50.870;0.022;2022-11-21T00:07:56;20.10;62.30
37806;DHT22;25082;50.870;0.022;2022-11-21T00:10:23;20.20;62.30
37806;DHT22;25082;50.870;0.022;2022-11-21T00:12:56;20.10;62.20
37806;DHT22;25082;50.870;0.022;2022-11-21T00:15:23;20.10;62.20
37806;DHT22;25082;50.870;0.022;2022-11-21T00:17:50;20.10;62.20
37806;DHT22;25082;50.870;0.022;2022-11-21T00:20:17;20.10;62.20
37806;DHT22;25082;50.870;0.022;2022-11-21T00:22:43;20.10;62.10
37806;DHT22;25082;50.870;0.022;2022-11-21T00:25:08;20.10;62.10
37806;DHT22;25082;50.870;0.022;2022-11-21T00:27:34;20.10;62.10
37806;DHT22;25082;50.870;0.022;2022-11-21T00:30:00;20.10;62.10
37806;DHT22;25082;50.870;0.022;2022-11-21T00:32:26;20.10;62.10
37806;DHT22;25082;50.870;0.022;2022-11-21T00:34:51;20.10;62.10
37806;DHT22;25082;50.870;0.022;2022-11-21T00:37:17;20.00;62.00
37806;DHT22;25082;50.870;0.022;2022-11-21T00:39:43;20.10;62.00
37806;DHT22;25082;50.870;0.022;2022-11-21T00:42:09;20.50;62.20
37806;DHT22;25082;50.870;0.022;2022-11-21T00:44:34;20.10;62.00
37806;DHT22;25082;50.870;0.022;2022-11-21T00:47:00;20.00;62.00
37806;DHT22;25082;50.870;0.022;2022-11-21T00:49:26;20.00;61.90
37806;DHT22;25082;50.870;0.022;2022-11-21T00:51:51;20.00;61.90
37806;DHT22;25082;50.870;0.022;2022-11-21T00:54:17;20.00;61.90
37806;DHT22;25082;50.870;0.022;2022-11-21T00:56:43;20.00;61.90
37806;DHT22;25082;50.870;0.022;2022-11-21T00:59:08;20.00;62.00
37806;DHT22;25082;50.870;0.022;2022-11-21T01:01:34;20.00;62.50
37806;DHT22;25082;50.870;0.022;2022-11-21T01:04:00;20.00;61.90
37806;DHT22;25082;50.870;0.022;2022-11-21T01:06:25;19.90;61.90
37806;DHT22;25082;50.870;0.022;2022-11-21T01:08:51;19.90;61.80
37806;DHT22;25082;50.870;0.022;2022-11-21T01:11:19;19.90;61.80
37806;DHT22;25082;50.870;0.022;2022-11-21T01:13:46;19.90;61.80
37806;DHT22;25082;50.870;0.022;2022-11-21T01:16:19;19.90;61.80
37806;DHT22;25082;50.870;0.022;2022-11-21T01:18:46;19.90;61.80
37806;DHT22;25082;50.870;0.022;2022-11-21T01:21:21;19.90;61.80
37806;DHT22;25082;50.870;0.022;2022-11-21T01:23:47;19.90;61.90
37806;DHT22;25082;50.870;0.022;2022-11-21T01:26:16;19.90;61.80
37806;DHT22;25082;50.870;0.022;2022-11-21T01:28:42;19.80;61.70
37806;DHT22;25082;50.870;0.022;2022-11-21T01:31:13;19.90;61.80
37806;DHT22;25082;50.870;0.022;2022-11-21T01:33:39;19.90;61.70
37806;DHT22;25082;50.870;0.022;2022-11-21T01:36:15;19.90;61.70
37806;DHT22;25082;50.870;0.022;2022-11-21T01:38:44;19.90;61.70
37806;DHT22;25082;50.870;0.022;2022-11-21T01:41:12;19.80;61.70
37806;DHT22;25082;50.870;0.022;2022-11-21T01:43:39;19.80;61.60
37806;DHT22;25082;50.870;0.022;2022-11-21T01:48:38;19.80;61.60
37806;DHT22;25082;50.870;0.022;2022-11-21T01:51:18;19.80;61.60
37806;DHT22;25082;50.870;0.022;2022-11-21T01:53:50;19.80;61.60
37806;DHT22;25082;50.870;0.022;2022-11-21T01:56:17;19.80;61.60
37806;DHT22;25082;50.870;0.022;2022-11-21T01:58:45;19.80;61.50
37806;DHT22;25082;50.870;0.022;2022-11-21T02:01:12;19.80;61.50
37806;DHT22;25082;50.870;0.022;2022-11-21T02:03:38;19.80;61.50
37806;DHT22;25082;50.870;0.022;2022-11-21T02:06:06;19.80;61.50
37806;DHT22;25082;50.870;0.022;2022-11-21T02:08:34;19.80;61.50
37806;DHT22;25082;50.870;0.022;2022-11-21T02:13:41;19.80;61.50
37806;DHT22;25082;50.870;0.022;2022-11-21T02:16:07;19.70;62.10
37806;DHT22;25082;50.870;0.022;2022-11-21T02:18:33;19.80;61.50
37806;DHT22;25082;50.870;0.022;2022-11-21T02:24:32;19.70;61.50
37806;DHT22;25082;50.870;0.022;2022-11-21T02:27:02;19.70;61.40
37806;DHT22;25082;50.870;0.022;2022-11-21T02:29:29;19.70;61.40
37806;DHT22;25082;50.870;0.022;2022-11-21T02:31:59;19.70;61.30
37806;DHT22;25082;50.870;0.022;2022-11-21T02:34:25;19.70;61.40
37806;DHT22;25082;50.870;0.022;2022-11-21T02:36:50;19.70;61.40
37806;DHT22;25082;50.870;0.022;2022-11-21T02:39:21;19.60;61.30
37806;DHT22;25082;50.870;0.022;2022-11-21T02:41:58;19.70;61.40
37806;DHT22;25082;50.870;0.022;2022-11-21T02:44:42;19.70;61.40
37806;DHT22;25082;50.870;0.022;2022-11-21T02:47:09;19.60;61.40
37806;DHT22;25082;50.870;0.022;2022-11-21T02:50:14;19.60;61.30
37806;DHT22;25082;50.870;0.022;2022-11-21T02:52:40;19.60;61.30
37806;DHT22;25082;50.870;0.022;2022-11-21T02:55:07;19.60;61.30
37806;DHT22;25082;50.870;0.022;2022-11-21T02:57:33;19.60;61.30
37806;DHT22;25082;50.870;0.022;2022-11-21T02:59:59;19.60;61.20
37806;DHT22;25082;50.870;0.022;2022-11-21T03:02:24;19.60;61.20
37806;DHT22;25082;50.870;0.022;2022-11-21T03:04:50;19.60;61.20
37806;DHT22;25082;50.870;0.022;2022-11-21T03:07:16;19.60;61.30
37806;DHT22;25082;50.870;0.022;2022-11-21T03:09:42;19.60;61.30
37806;DHT22;25082;50.870;0.022;2022-11-21T03:12:09;19.50;61.20
37806;DHT22;25082;50.870;0.022;2022-11-21T03:14:36;19.60;61.20
37806;DHT22;25082;50.870;0.022;2022-11-21T03:17:02;19.50;61.20
37806;DHT22;25082;50.870;0.022;2022-11-21T03:19:28;19.50;61.10
37806;DHT22;25082;50.870;0.022;2022-11-21T03:21:54;19.50;61.20
37806;DHT22;25082;50.870;0.022;2022-11-21T03:24:20;19.50;61.20
37806;DHT22;25082;50.870;0.022;2022-11-21T03:26:45;19.50;61.20
37806;DHT22;25082;50.870;0.022;2022-11-21T03:29:11;19.50;61.20
37806;DHT22;25082;50.870;0.022;2022-11-21T03:31:37;19.50;61.20
37806;DHT22;25082;50.870;0.022;2022-11-21T03:34:02;19.40;61.10
37806;DHT22;25082;50.870;0.022;2022-11-21T03:36:28;19.50;61.20
37806;DHT22;25082;50.870;0.022;2022-11-21T03:38:54;19.50;61.10
37806;DHT22;25082;50.870;0.022;2022-11-21T03:41:22;19.50;61.10
37806;DHT22;25082;50.870;0.022;2022-11-21T03:44:14;19.50;61.10
37806;DHT22;25082;50.870;0.022;2022-11-21T03:46:43;19.50;61.10
37806;DHT22;25082;50.870;0.022;2022-11-21T03:49:10;19.50;61.20
37806;DHT22;25082;50.870;0.022;2022-11-21T03:51:35;19.40;61.10
37806;DHT22;25082;50.870;0.022;2022-11-21T03:54:02;19.40;61.00
37806;DHT22;25082;50.870;0.022;2022-11-21T03:56:28;19.40;61.00
37806;DHT22;25082;50.870;0.022;2022-11-21T03:58:54;19.40;61.00
37806;DHT22;25082;50.870;0.022;2022-11-21T04:01:21;19.40;61.00
37806;DHT22;25082;50.870;0.022;2022-11-21T04:03:47;19.30;60.90
37806;DHT22;25082;50.870;0.022;2022-11-21T04:06:14;19.40;60.90
37806;DHT22;25082;50.870;0.022;2022-11-21T04:08:40;19.40;61.00
37806;DHT22;25082;50.870;0.022;2022-11-21T04:11:06;19.40;61.00
37806;DHT22;25082;50.870;0.022;2022-11-21T04:13:32;19.40;60.90
37806;DHT22;25082;50.870;0.022;2022-11-21T04:15:58;19.30;60.90
37806;DHT22;25082;50.870;0.022;2022-11-21T04:18:24;19.30;60.80
37806;DHT22;25082;50.870;0.022;2022-11-21T04:20:58;19.30;60.80
37806;DHT22;25082;50.870;0.022;2022-11-21T04:23:25;19.30;60.90
37806;DHT22;25082;50.870;0.022;2022-11-21T04:25:51;19.30;60.80
37806;DHT22;25082;50.870;0.022;2022-11-21T04:28:17;19.30;60.90
37806;DHT22;25082;50.870;0.022;2022-11-21T04:30:43;19.30;60.90
37806;DHT22;25082;50.870;0.022;2022-11-21T04:33:12;19.30;60.90
37806;DHT22;25082;50.870;0.022;2022-11-21T04:35:39;19.30;61.40
37806;DHT22;25082;50.870;0.022;2022-11-21T04:38:05;19.30;60.90
37806;DHT22;25082;50.870;0.022;2022-11-21T04:40:31;19.30;60.90
37806;DHT22;25082;50.870;0.022;2022-11-21T04:42:56;19.30;60.90
37806;DHT22;25082;50.870;0.022;2022-11-21T04:45:22;19.30;60.80
37806;DHT22;25082;50.870;0.022;2022-11-21T04:47:48;19.30;60.80
37806;DHT22;25082;50.870;0.022;2022-11-21T04:50:16;19.30;60.80
37806;DHT22;25082;50.870;0.022;2022-11-21T04:52:51;19.30;60.80
37806;DHT22;25082;50.870;0.022;2022-11-21T04:55:18;19.30;60.80
37806;DHT22;25082;50.870;0.022;2022-11-21T04:57:44;19.20;60.80
37806;DHT22;25082;50.870;0.022;2022-11-21T05:00:11;19.20;60.80
37806;DHT22;25082;50.870;0.022;2022-11-21T05:02:37;19.20;60.80
37806;DHT22;25082;50.870;0.022;2022-11-21T05:05:03;19.20;60.80
37806;DHT22;25082;50.870;0.022;2022-11-21T05:07:29;19.20;60.70
37806;DHT22;25082;50.870;0.022;2022-11-21T05:09:55;19.20;60.70
37806;DHT22;25082;50.870;0.022;2022-11-21T05:12:21;19.20;60.80
37806;DHT22;25082;50.870;0.022;2022-11-21T05:15:05;19.20;60.90
37806;DHT22;25082;50.870;0.022;2022-11-21T05:17:31;19.20;60.80
37806;DHT22;25082;50.870;0.022;2022-11-21T05:19:57;19.10;60.70
37806;DHT22;25082;50.870;0.022;2022-11-21T05:22:22;19.10;60.80
37806;DHT22;25082;50.870;0.022;2022-11-21T05:24:48;19.10;60.70
37806;DHT22;25082;50.870;0.022;2022-11-21T05:27:14;19.10;60.70
37806;DHT22;25082;50.870;0.022;2022-11-21T05:29:40;19.10;60.70
37806;DHT22;25082;50.870;0.022;2022-11-21T05:32:05;19.10;60.80
37806;DHT22;25082;50.870;0.022;2022-11-21T05:34:31;19.10;60.70
37806;DHT22;25082;50.870;0.022;2022-11-21T05:36:57;19.10;60.80
37806;DHT22;25082;50.870;0.022;2022-11-21T05:39:23;19.10;60.80
37806;DHT22;25082;50.870;0.022;2022-11-21T05:41:50;19.10;60.80
37806;DHT22;25082;50.870;0.022;2022-11-21T05:44:16;19.00;60.70
37806;DHT22;25082;50.870;0.022;2022-11-21T05:46:41;19.00;60.70
37806;DHT22;25082;50.870;0.022;2022-11-21T05:49:07;19.00;60.70
37806;DHT22;25082;50.870;0.022;2022-11-21T05:51:33;19.00;60.70
37806;DHT22;25082;50.870;0.022;2022-11-21T05:53:59;19.10;60.80
37806;DHT22;25082;50.870;0.022;2022-11-21T05:56:25;19.10;60.80
37806;DHT22;25082;50.870;0.022;2022-11-21T05:58:53;19.00;60.70
37806;DHT22;25082;50.870;0.022;2022-11-21T06:01:19;19.00;60.70
37806;DHT22;25082;50.870;0.022;2022-11-21T06:04:05;19.00;60.70
37806;DHT22;25082;50.870;0.022;2022-11-21T06:06:31;19.00;60.70
37806;DHT22;25082;50.870;0.022;2022-11-21T06:08:56;19.00;60.70
37806;DHT22;25082;50.870;0.022;2022-11-21T06:11:22;19.00;60.70
37806;DHT22;25082;50.870;0.022;2022-11-21T06:13:48;19.00;60.70
37806;DHT22;25082;50.870;0.022;2022-11-21T06:16:16;19.00;60.80
37806;DHT22;25082;50.870;0.022;2022-11-21T06:18:51;19.00;60.80
37806;DHT22;25082;50.870;0.022;2022-11-21T06:21:20;19.00;60.80
37806;DHT22;25082;50.870;0.022;2022-11-21T06:23:48;19.00;60.90
37806;DHT22;25082;50.870;0.022;2022-11-21T06:26:16;19.00;60.90
37806;DHT22;25082;50.870;0.022;2022-11-21T06:28:43;18.90;60.80
37806;DHT22;25082;50.870;0.022;2022-11-21T06:31:13;18.90;60.90
37806;DHT22;25082;50.870;0.022;2022-11-21T06:33:40;18.90;60.80
37806;DHT22;25082;50.870;0.022;2022-11-21T06:36:08;19.00;60.90
37806;DHT22;25082;50.870;0.022;2022-11-21T06:38:34;18.90;60.80
37806;DHT22;25082;50.870;0.022;2022-11-21T06:41:10;18.90;60.80
37806;DHT22;25082;50.870;0.022;2022-11-21T06:43:36;18.90;60.80
37806;DHT22;25082;50.870;0.022;2022-11-21T06:46:02;18.90;60.90
37806;DHT22;25082;50.870;0.022;2022-11-21T06:48:32;18.90;60.90
37806;DHT22;25082;50.870;0.022;2022-11-21T06:51:06;18.90;60.90
37806;DHT22;25082;50.870;0.022;2022-11-21T06:53:33;18.90;60.90
37806;DHT22;25082;50.870;0.022;2022-11-21T06:56:00;18.90;60.90
37806;DHT22;25082;50.870;0.022;2022-11-21T06:58:26;18.90;60.90
37806;DHT22;25082;50.870;0.022;2022-11-21T07:00:53;18.80;60.80
37806;DHT22;25082;50.870;0.022;2022-11-21T07:03:19;18.90;60.90
37806;DHT22;25082;50.870;0.022;2022-11-21T07:05:47;18.90;60.80
37806;DHT22;25082;50.870;0.022;2022-11-21T07:08:12;18.80;60.80
37806;DHT22;25082;50.870;0.022;2022-11-21T07:10:38;18.90;60.80
37806;DHT22;25082;50.870;0.022;2022-11-21T07:13:04;18.80;60.70
37806;DHT22;25082;50.870;0.022;2022-11-21T07:15:53;18.80;61.30
37806;DHT22;25082;50.870;0.022;2022-11-21T07:18:20;18.90;61.40
37806;DHT22;25082;50.870;0.022;2022-11-21T07:20:46;18.80;60.80
37806;DHT22;25082;50.870;0.022;2022-11-21T07:23:12;18.80;60.80
37806;DHT22;25082;50.870;0.022;2022-11-21T07:25:38;18.90;60.80
37806;DHT22;25082;50.870;0.022;2022-11-21T07:28:05;18.90;60.90
37806;DHT22;25082;50.870;0.022;2022-11-21T07:30:32;18.90;60.90
37806;DHT22;25082;50.870;0.022;2022-11-21T07:32:59;18.80;60.80
37806;DHT22;25082;50.870;0.022;2022-11-21T07:35:25;18.80;60.80
37806;DHT22;25082;50.870;0.022;2022-11-21T07:37:51;18.80;60.90
37806;DHT22;25082;50.870;0.022;2022-11-21T07:40:17;18.80;60.90
37806;DHT22;25082;50.870;0.022;2022-11-21T07:42:43;18.80;60.90
37806;DHT22;25082;50.870;0.022;2022-11-21T07:45:10;18.80;60.90
37806;DHT22;25082;50.870;0.022;2022-11-21T07:47:36;18.70;60.80
37806;DHT22;25082;50.870;0.022;2022-11-21T07:50:01;18.80;60.90
37806;DHT22;25082;50.870;0.022;2022-11-21T07:52:27;18.80;61.00
37806;DHT22;25082;50.870;0.022;2022-11-21T07:54:55;18.70;60.90
37806;DHT22;25082;50.870;0.022;2022-11-21T07:57:21;18.70;60.90
37806;DHT22;25082;50.870;0.022;2022-11-21T07:59:47;18.70;60.90
37806;DHT22;25082;50.870;0.022;2022-11-21T08:02:20;18.70;60.90
37806;DHT22;25082;50.870;0.022;2022-11-21T08:04:47;18.70;60.90
37806;DHT22;25082;50.870;0.022;2022-11-21T08:07:13;18.70;60.90
37806;DHT22;25082;50.870;0.022;2022-11-21T08:09:39;18.70;60.90
37806;DHT22;25082;50.870;0.022;2022-11-21T08:12:05;18.70;60.90
37806;DHT22;25082;50.870;0.022;2022-11-21T08:14:32;18.70;61.00
37806;DHT22;25082;50.870;0.022;2022-11-21T08:16:58;18.70;61.50
37806;DHT22;25082;50.870;0.022;2022-11-21T08:19:24;18.70;61.00
37806;DHT22;25082;50.870;0.022;2022-11-21T08:21:50;18.70;61.10
37806;DHT22;25082;50.870;0.022;2022-11-21T08:24:15;18.70;61.10
37806;DHT22;25082;50.870;0.022;2022-11-21T08:26:43;18.70;60.90
37806;DHT22;25082;50.870;0.022;2022-11-21T08:29:10;18.80;61.00
37806;DHT22;25082;50.870;0.022;2022-11-21T08:31:36;18.80;60.90
37806;DHT22;25082;50.870;0.022;2022-11-21T08:34:02;18.80;61.50
37806;DHT22;25082;50.870;0.022;2022-11-21T08:36:28;18.90;60.90
37806;DHT22;25082;50.870;0.022;2022-11-21T08:38:54;18.90;60.90
37806;DHT22;25082;50.870;0.022;2022-11-21T08:41:19;18.90;60.80
37806;DHT22;25082;50.870;0.022;2022-11-21T08:44:04;18.90;60.80
37806;DHT22;25082;50.870;0.022;2022-11-21T08:46:31;19.00;60.90
37806;DHT22;25082;50.870;0.022;2022-11-21T08:48:58;19.00;60.90
37806;DHT22;25082;50.870;0.022;2022-11-21T08:51:24;19.00;60.90
37806;DHT22;25082;50.870;0.022;2022-11-21T08:53:50;19.00;60.90
37806;DHT22;25082;50.870;0.022;2022-11-21T08:56:15;19.00;61.00
37806;DHT22;25082;50.870;0.022;2022-11-21T08:58:41;19.00;60.90
37806;DHT22;25082;50.870;0.022;2022-11-21T09:01:07;19.10;61.00
37806;DHT22;25082;50.870;0.022;2022-11-21T09:03:33;19.10;61.10
37806;DHT22;25082;50.870;0.022;2022-11-21T09:05:59;19.10;61.00
37806;DHT22;25082;50.870;0.022;2022-11-21T09:08:25;19.10;61.30
37806;DHT22;25082;50.870;0.022;2022-11-21T09:10:51;19.10;61.30
37806;DHT22;25082;50.870;0.022;2022-11-21T09:13:17;19.20;61.40
37806;DHT22;25082;50.870;0.022;2022-11-21T09:15:43;19.20;61.40
37806;DHT22;25082;50.870;0.022;2022-11-21T09:18:27;19.20;61.40
37806;DHT22;25082;50.870;0.022;2022-11-21T09:20:53;19.20;61.50
37806;DHT22;25082;50.870;0.022;2022-11-21T09:23:18;19.30;61.40
37806;DHT22;25082;50.870;0.022;2022-11-21T09:25:44;19.30;61.60
37806;DHT22;25082;50.870;0.022;2022-11-21T09:28:11;19.30;61.60
37806;DHT22;25082;50.870;0.022;2022-11-21T09:30:38;19.30;61.60
37806;DHT22;25082;50.870;0.022;2022-11-21T09:33:06;19.30;61.70
37806;DHT22;25082;50.870;0.022;2022-11-21T09:35:32;19.30;61.70
37806;DHT22;25082;50.870;0.022;2022-11-21T09:37:58;19.30;61.70
37806;DHT22;25082;50.870;0.022;2022-11-21T09:40:24;19.40;61.90
37806;DHT22;25082;50.870;0.022;2022-11-21T09:43:09;19.30;61.80
37806;DHT22;25082;50.870;0.022;2022-11-21T09:48:33;19.30;61.90
37806;DHT22;25082;50.870;0.022;2022-11-21T09:51:03;19.40;61.90
37806;DHT22;25082;50.870;0.022;2022-11-21T09:53:33;19.40;62.00
37806;DHT22;25082;50.870;0.022;2022-11-21T09:56:08;19.40;62.00
37806;DHT22;25082;50.870;0.022;2022-11-21T10:01:27;19.40;62.00
37806;DHT22;25082;50.870;0.022;2022-11-21T10:03:54;19.40;62.00
37806;DHT22;25082;50.870;0.022;2022-11-21T10:06:23;19.40;62.00
37806;DHT22;25082;50.870;0.022;2022-11-21T10:23:46;19.50;62.20
37806;DHT22;25082;50.870;0.022;2022-11-21T10:25:49;19.50;62.20
37806;DHT22;25082;50.870;0.022;2022-11-21T10:31:11;19.40;62.20
37806;DHT22;25082;50.870;0.022;2022-11-21T10:33:38;19.40;62.20
37806;DHT22;25082;50.870;0.022;2022-11-21T10:36:26;19.50;62.30
37806;DHT22;25082;50.870;0.022;2022-11-21T10:39:02;19.50;62.30
37806;DHT22;25082;50.870;0.022;2022-11-21T10:49:38;19.50;62.60
37806;DHT22;25082;50.870;0.022;2022-11-21T10:52:09;19.50;62.70
37806;DHT22;25082;50.870;0.022;2022-11-21T10:57:32;19.50;62.90
37806;DHT22;25082;50.870;0.022;2022-11-21T11:03:06;19.50;63.10
37806;DHT22;25082;50.870;0.022;2022-11-21T11:05:39;19.60;63.20
37806;DHT22;25082;50.870;0.022;2022-11-21T11:08:10;19.60;63.20
37806;DHT22;25082;50.870;0.022;2022-11-21T11:10:43;19.60;63.50
37806;DHT22;25082;50.870;0.022;2022-11-21T11:13:15;19.60;63.70
37806;DHT22;25082;50.870;0.022;2022-11-21T11:18:45;19.60;63.40
37806;DHT22;25082;50.870;0.022;2022-11-21T11:21:19;19.60;63.60
37806;DHT22;25082;50.870;0.022;2022-11-21T11:23:48;19.60;63.50
37806;DHT22;25082;50.870;0.022;2022-11-21T11:26:28;19.60;63.50
37806;DHT22;25082;50.870;0.022;2022-11-21T11:29:18;19.60;63.80
37806;DHT22;25082;50.870;0.022;2022-11-21T11:32:11;19.70;63.70
37806;DHT22;25082;50.870;0.022;2022-11-21T11:34:57;19.70;64.10
37806;DHT22;25082;50.870;0.022;2022-11-21T11:37:41;19.70;64.30
37806;DHT22;25082;50.870;0.022;2022-11-21T11:40:31;19.60;64.10
37806;DHT22;25082;50.870;0.022;2022-11-21T11:46:52;19.60;64.10
37806;DHT22;25082;50.870;0.022;2022-11-21T11:49:46;19.70;64.10
37806;DHT22;25082;50.870;0.022;2022-11-21T11:52:38;19.60;59.70
37806;DHT22;25082;50.870;0.022;2022-11-21T11:58:01;19.50;61.10
37806;DHT22;25082;50.870;0.022;2022-11-21T12:00:37;19.50;61.90
37806;DHT22;25082;50.870;0.022;2022-11-21T12:03:13;19.50;62.20
37806;DHT22;25082;50.870;0.022;2022-11-21T12:05:55;19.50;62.50
37806;DHT22;25082;50.870;0.022;2022-11-21T12:11:02;19.50;62.60
37806;DHT22;25082;50.870;0.022;2022-11-21T12:13:54;19.60;62.80
37806;DHT22;25082;50.870;0.022;2022-11-21T12:16:24;19.60;62.70
37806;DHT22;25082;50.870;0.022;2022-11-21T12:18:59;19.60;62.90
37806;DHT22;25082;50.870;0.022;2022-11-21T12:21:27;19.60;62.90
37806;DHT22;25082;50.870;0.022;2022-11-21T12:24:00;19.60;62.90
37806;DHT22;25082;50.870;0.022;2022-11-21T12:48:38;19.60;62.50
37806;DHT22;25082;50.870;0.022;2022-11-21T12:51:39;19.60;63.00
37806;DHT22;25082;50.870;0.022;2022-11-21T12:57:12;19.60;63.00
37806;DHT22;25082;50.870;0.022;2022-11-21T13:04:59;19.70;63.30
37806;DHT22;25082;50.870;0.022;2022-11-21T13:07:27;19.70;63.30
37806;DHT22;25082;50.870;0.022;2022-11-21T13:09:56;19.70;63.30
37806;DHT22;25082;50.870;0.022;2022-11-21T13:12:48;19.70;63.30
37806;DHT22;25082;50.870;0.022;2022-11-21T13:16:18;19.80;63.30
37806;DHT22;25082;50.870;0.022;2022-11-21T13:18:45;19.70;63.30
37806;DHT22;25082;50.870;0.022;2022-11-21T13:21:41;19.80;63.40
37806;DHT22;25082;50.870;0.022;2022-11-21T13:24:07;19.80;63.30
37806;DHT22;25082;50.870;0.022;2022-11-21T13:29:08;19.80;63.40
37806;DHT22;25082;50.870;0.022;2022-11-21T13:31:35;19.80;63.50
37806;DHT22;25082;50.870;0.022;2022-11-21T13:34:02;19.80;63.40
37806;DHT22;25082;50.870;0.022;2022-11-21T13:44:37;19.80;63.70
37806;DHT22;25082;50.870;0.022;2022-11-21T13:55:38;19.90;64.00
37806;DHT22;25082;50.870;0.022;2022-11-21T14:04:07;19.90;63.90
37806;DHT22;25082;50.870;0.022;2022-11-21T14:06:39;19.90;63.80
37806;DHT22;25082;50.870;0.022;2022-11-21T14:09:18;19.90;63.80
37806;DHT22;25082;50.870;0.022;2022-11-21T14:11:52;19.90;63.70
37806;DHT22;25082;50.870;0.022;2022-11-21T14:14:37;19.90;63.80
37806;DHT22;25082;50.870;0.022;2022-11-21T14:20:27;19.90;63.80
37806;DHT22;25082;50.870;0.022;2022-11-21T14:22:54;19.90;63.80
37806;DHT22;25082;50.870;0.022;2022-11-21T14:28:08;19.90;63.80
37806;DHT22;25082;50.870;0.022;2022-11-21T14:30:39;19.90;63.90
37806;DHT22;25082;50.870;0.022;2022-11-21T14:33:25;20.00;63.90
37806;DHT22;25082;50.870;0.022;2022-11-21T14:35:59;19.90;64.50
37806;DHT22;25082;50.870;0.022;2022-11-21T14:38:26;19.90;63.80
37806;DHT22;25082;50.870;0.022;2022-11-21T14:41:23;20.00;63.90
37806;DHT22;25082;50.870;0.022;2022-11-21T14:46:32;20.00;63.80
37806;DHT22;25082;50.870;0.022;2022-11-21T14:52:12;20.00;64.10
37806;DHT22;25082;50.870;0.022;2022-11-21T14:57:45;20.00;64.00
37806;DHT22;25082;50.870;0.022;2022-11-21T15:00:13;20.00;63.90
37806;DHT22;25082;50.870;0.022;2022-11-21T15:02:40;20.00;63.90
37806;DHT22;25082;50.870;0.022;2022-11-21T15:05:12;20.00;63.90
37806;DHT22;25082;50.870;0.022;2022-11-21T15:07:42;20.00;63.90
37806;DHT22;25082;50.870;0.022;2022-11-21T15:10:12;20.00;64.00
37806;DHT22;25082;50.870;0.022;2022-11-21T15:15:39;20.00;64.00
37806;DHT22;25082;50.870;0.022;2022-11-21T15:18:11;20.00;63.90
37806;DHT22;25082;50.870;0.022;2022-11-21T15:20:38;20.00;63.90
37806;DHT22;25082;50.870;0.022;2022-11-21T15:23:04;20.10;64.10
37806;DHT22;25082;50.870;0.022;2022-11-21T15:25:44;20.10;64.00
37806;DHT22;25082;50.870;0.022;2022-11-21T15:28:15;20.10;64.00
37806;DHT22;25082;50.870;0.022;2022-11-21T15:30:41;20.10;63.90
37806;DHT22;25082;50.870;0.022;2022-11-21T15:33:19;20.10;62.60
37806;DHT22;25082;50.870;0.022;2022-11-21T15:35:55;20.10;63.10
37806;DHT22;25082;50.870;0.022;2022-11-21T15:43:46;20.10;63.70
37806;DHT22;25082;50.870;0.022;2022-11-21T15:48:38;20.10;63.80
37806;DHT22;25082;50.870;0.022;2022-11-21T15:51:04;20.10;63.80
37806;DHT22;25082;50.870;0.022;2022-11-21T15:53:29;20.10;63.70
37806;DHT22;25082;50.870;0.022;2022-11-21T15:55:55;20.10;63.70
37806;DHT22;25082;50.870;0.022;2022-11-21T15:58:21;20.10;63.60
37806;DHT22;25082;50.870;0.022;2022-11-21T16:00:47;20.10;63.60
37806;DHT22;25082;50.870;0.022;2022-11-21T16:03:12;20.10;63.60
37806;DHT22;25082;50.870;0.022;2022-11-21T16:05:38;20.10;63.60
37806;DHT22;25082;50.870;0.022;2022-11-21T16:08:04;20.10;63.60
37806;DHT22;25082;50.870;0.022;2022-11-21T16:10:30;20.10;63.60
37806;DHT22;25082;50.870;0.022;2022-11-21T16:12:56;20.10;63.60
37806;DHT22;25082;50.870;0.022;2022-11-21T16:15:22;20.10;63.60
37806;DHT22;25082;50.870;0.022;2022-11-21T16:17:47;20.10;63.60
37806;DHT22;25082;50.870;0.022;2022-11-21T16:20:13;20.10;63.50
37806;DHT22;25082;50.870;0.022;2022-11-21T16:22:39;20.10;63.50
37806;DHT22;25082;50.870;0.022;2022-11-21T16:25:06;20.10;63.50
37806;DHT22;25082;50.870;0.022;2022-11-21T16:27:32;20.10;63.50
37806;DHT22;25082;50.870;0.022;2022-11-21T16:29:58;20.10;63.40
37806;DHT22;25082;50.870;0.022;2022-11-21T16:32:26;20.10;63.40
37806;DHT22;25082;50.870;0.022;2022-11-21T16:34:52;20.10;63.40
37806;DHT22;25082;50.870;0.022;2022-11-21T16:37:19;20.10;63.40
37806;DHT22;25082;50.870;0.022;2022-11-21T16:39:45;20.10;63.30
37806;DHT22;25082;50.870;0.022;2022-11-21T16:42:17;20.10;63.30
37806;DHT22;25082;50.870;0.022;2022-11-21T16:44:43;20.10;63.30
37806;DHT22;25082;50.870;0.022;2022-11-21T16:47:09;20.10;63.30
37806;DHT22;25082;50.870;0.022;2022-11-21T16:49:35;20.10;63.20
37806;DHT22;25082;50.870;0.022;2022-11-21T16:52:05;20.10;63.30
37806;DHT22;25082;50.870;0.022;2022-11-21T16:54:31;20.10;63.30
37806;DHT22;25082;50.870;0.022;2022-11-21T16:56:56;20.10;63.20
37806;DHT22;25082;50.870;0.022;2022-11-21T16:59:22;20.10;63.20
37806;DHT22;25082;50.870;0.022;2022-11-21T17:01:48;20.10;63.20
37806;DHT22;25082;50.870;0.022;2022-11-21T17:04:14;20.10;63.20
37806;DHT22;25082;50.870;0.022;2022-11-21T17:06:39;20.10;63.20
37806;DHT22;25082;50.870;0.022;2022-11-21T17:09:05;20.10;63.10
37806;DHT22;25082;50.870;0.022;2022-11-21T17:11:31;20.10;63.00
37806;DHT22;25082;50.870;0.022;2022-11-21T17:14:05;20.10;63.00
37806;DHT22;25082;50.870;0.022;2022-11-21T17:16:31;20.10;63.00
37806;DHT22;25082;50.870;0.022;2022-11-21T17:18:59;20.10;62.90
37806;DHT22;25082;50.870;0.022;2022-11-21T17:21:27;20.20;63.60
37806;DHT22;25082;50.870;0.022;2022-11-21T17:23:53;20.20;62.90
37806;DHT22;25082;50.870;0.022;2022-11-21T17:26:27;20.20;62.90
37806;DHT22;25082;50.870;0.022;2022-11-21T17:29:03;20.20;62.90
37806;DHT22;25082;50.870;0.022;2022-11-21T17:31:30;20.20;62.90
37806;DHT22;25082;50.870;0.022;2022-11-21T17:33:57;20.20;62.90
37806;DHT22;25082;50.870;0.022;2022-11-21T17:36:25;20.20;62.80
37806;DHT22;25082;50.870;0.022;2022-11-21T17:38:52;20.20;62.80
37806;DHT22;25082;50.870;0.022;2022-11-21T17:41:20;20.20;62.80
37806;DHT22;25082;50.870;0.022;2022-11-21T17:43:46;20.20;62.80
37806;DHT22;25082;50.870;0.022;2022-11-21T17:46:14;20.30;62.80
37806;DHT22;25082;50.870;0.022;2022-11-21T17:48:41;20.20;62.80
37806;DHT22;25082;50.870;0.022;2022-11-21T17:51:12;20.20;62.80
37806;DHT22;25082;50.870;0.022;2022-11-21T17:53:40;20.30;62.80
37806;DHT22;25082;50.870;0.022;2022-11-21T17:56:09;20.30;62.80
37806;DHT22;25082;50.870;0.022;2022-11-21T17:58:35;20.30;62.80
37806;DHT22;25082;50.870;0.022;2022-11-21T18:01:03;20.30;62.70